createdAt,value
2023-08-21T00:00:09.938Z,1.23
2023-08-21T00:02:39.392Z,0.70
2023-08-21T00:05:07.936Z,0.60
2023-08-21T00:07:35.743Z,0.80
2023-08-21T00:10:03.638Z,0.95
2023-08-21T00:12:31.527Z,0.50
2023-08-21T00:14:59.750Z,0.80
2023-08-21T00:17:27.441Z,0.43
2023-08-21T00:19:55.330Z,0.73
2023-08-21T00:22:22.990Z,0.77
2023-08-21T00:24:50.711Z,0.70
2023-08-21T00:27:18.389Z,0.60
2023-08-21T00:29:46.014Z,0.70
2023-08-21T00:32:13.732Z,0.95
2023-08-21T00:34:41.693Z,1.02
2023-08-21T00:37:09.845Z,0.77
2023-08-21T00:39:37.495Z,1.10
2023-08-21T00:42:06.324Z,0.80
2023-08-21T00:44:34.071Z,0.98
2023-08-21T00:47:02.138Z,0.85
2023-08-21T00:49:30.772Z,0.75
2023-08-21T00:51:58.783Z,0.95
2023-08-21T00:54:26.593Z,1.30
2023-08-21T00:56:54.775Z,1.10
2023-08-21T00:59:24.263Z,1.30
2023-08-21T01:01:52.626Z,1.10
2023-08-21T01:04:20.367Z,1.13
2023-08-21T01:06:50.547Z,1.77
2023-08-21T01:09:54.242Z,1.45
2023-08-21T01:12:49.765Z,0.93
2023-08-21T01:15:18.629Z,0.93
2023-08-21T01:17:48.907Z,1.02
2023-08-21T01:20:18.036Z,0.73
2023-08-21T01:22:47.254Z,1.13
2023-08-21T01:25:17.200Z,1.40
2023-08-21T01:27:51.182Z,1.45
2023-08-21T01:30:19.147Z,2.00
2023-08-21T01:32:51.962Z,1.73
2023-08-21T01:35:21.409Z,1.08
2023-08-21T01:37:49.805Z,1.20
2023-08-21T01:40:26.333Z,1.33
2023-08-21T01:42:55.204Z,1.00
2023-08-21T01:45:23.714Z,1.10
2023-08-21T01:47:52.729Z,0.90
2023-08-21T01:50:20.481Z,0.88
2023-08-21T01:52:48.221Z,1.95
2023-08-21T01:55:16.440Z,0.90
2023-08-21T01:57:44.213Z,1.08
2023-08-21T02:00:14.144Z,1.42
2023-08-21T02:02:46.102Z,1.08
2023-08-21T02:05:13.968Z,1.20
2023-08-21T02:07:41.606Z,1.13
2023-08-21T02:10:10.003Z,1.00
2023-08-21T02:12:40.774Z,0.77
2023-08-21T02:15:11.458Z,1.30
2023-08-21T02:17:39.182Z,1.45
2023-08-21T02:20:08.250Z,0.95
2023-08-21T02:22:36.808Z,1.30
2023-08-21T02:25:05.550Z,1.50
2023-08-21T02:27:33.256Z,0.93
2023-08-21T02:30:00.971Z,1.30
2023-08-21T02:32:31.417Z,1.45
2023-08-21T02:35:01.421Z,1.30
2023-08-21T02:37:29.115Z,1.10
2023-08-21T02:39:56.887Z,1.10
2023-08-21T02:42:24.574Z,1.17
2023-08-21T02:44:52.281Z,1.40
2023-08-21T02:47:19.976Z,1.35
2023-08-21T02:49:47.824Z,1.10
2023-08-21T02:52:15.429Z,1.20
2023-08-21T02:54:43.107Z,1.30
2023-08-21T02:57:11.026Z,1.45
2023-08-21T02:59:38.634Z,1.20
2023-08-21T03:02:06.304Z,1.30
2023-08-21T03:04:33.962Z,1.13
2023-08-21T03:07:01.703Z,3.17
2023-08-21T03:09:29.346Z,1.05
2023-08-21T03:11:57.505Z,1.17
2023-08-21T03:14:27.858Z,1.20
2023-08-21T03:16:55.616Z,1.13
2023-08-21T03:19:24.157Z,1.15
2023-08-21T03:21:52.924Z,0.93
2023-08-21T03:24:21.455Z,1.08
2023-08-21T03:26:50.179Z,1.40
2023-08-21T03:29:17.917Z,1.27
2023-08-21T03:31:50.842Z,1.60
2023-08-21T03:34:18.741Z,1.73
2023-08-21T03:36:46.581Z,1.20
2023-08-21T03:39:14.601Z,1.42
2023-08-21T03:41:47.621Z,0.90
2023-08-21T03:44:17.113Z,0.95
2023-08-21T03:46:44.839Z,1.73
2023-08-21T03:49:12.940Z,1.35
2023-08-21T03:51:40.594Z,1.45
2023-08-21T03:54:08.294Z,2.00
2023-08-21T03:56:37.877Z,1.40
2023-08-21T03:59:05.669Z,1.75
2023-08-21T04:01:33.327Z,1.45
2023-08-21T04:04:01.123Z,1.05
2023-08-21T04:06:31.349Z,1.75
2023-08-21T04:08:59.088Z,1.50
2023-08-21T04:11:27.575Z,1.50
2023-08-21T04:13:55.493Z,1.67
2023-08-21T04:16:23.314Z,1.40
2023-08-21T04:18:51.117Z,1.80
2023-08-21T04:21:20.721Z,2.17
2023-08-21T04:23:48.717Z,1.92
2023-08-21T04:26:16.356Z,1.55
2023-08-21T04:28:44.142Z,1.17
2023-08-21T04:31:11.829Z,0.93
2023-08-21T04:33:39.794Z,1.27
2023-08-21T04:36:07.606Z,1.23
2023-08-21T04:38:35.653Z,1.50
2023-08-21T04:41:10.201Z,1.65
2023-08-21T04:43:41.960Z,1.65
2023-08-21T04:46:11.444Z,1.30
2023-08-21T04:48:42.132Z,1.70
2023-08-21T04:51:09.953Z,1.45
2023-08-21T04:53:38.266Z,1.30
2023-08-21T04:56:10.560Z,1.13
2023-08-21T04:58:38.438Z,1.70
2023-08-21T05:01:06.845Z,1.30
2023-08-21T05:03:38.691Z,1.35
2023-08-21T05:06:06.712Z,1.65
2023-08-21T05:08:36.330Z,1.60
2023-08-21T05:11:06.854Z,1.40
2023-08-21T05:13:37.361Z,1.50
2023-08-21T05:16:07.515Z,1.05
2023-08-21T05:18:38.422Z,1.60
2023-08-21T05:21:06.341Z,1.40
2023-08-21T05:23:34.063Z,1.40
2023-08-21T05:26:05.858Z,1.50
2023-08-21T05:28:33.890Z,1.55
2023-08-21T05:31:01.688Z,1.42
2023-08-21T05:33:37.544Z,1.70
2023-08-21T05:36:06.001Z,1.45
2023-08-21T05:38:34.090Z,2.22
2023-08-21T05:41:02.252Z,1.50
2023-08-21T05:43:30.145Z,1.67
2023-08-21T05:45:58.903Z,1.80
2023-08-21T05:48:26.861Z,1.70
2023-08-21T05:50:54.956Z,1.77
2023-08-21T05:53:22.691Z,1.90
2023-08-21T05:55:50.667Z,2.35
2023-08-21T05:58:18.386Z,2.10
2023-08-21T06:00:48.272Z,2.35
2023-08-21T06:03:16.149Z,1.77
2023-08-21T06:05:57.554Z,2.75
2023-08-21T06:08:25.874Z,2.13
2023-08-21T06:10:54.103Z,2.00
2023-08-21T06:13:22.475Z,2.80
2023-08-21T06:15:52.982Z,2.80
2023-08-21T06:18:22.357Z,2.88
2023-08-21T06:20:54.731Z,2.95
2023-08-21T06:23:22.870Z,3.42
2023-08-21T06:25:51.162Z,3.10
2023-08-21T06:28:23.099Z,2.70
2023-08-21T06:31:00.448Z,3.33
2023-08-21T06:33:28.416Z,3.45
2023-08-21T06:35:56.272Z,4.13
2023-08-21T06:38:23.952Z,3.53
2023-08-21T06:40:52.308Z,3.53
2023-08-21T06:43:20.322Z,3.17
2023-08-21T06:45:50.593Z,3.08
2023-08-21T06:48:19.706Z,3.60
2023-08-21T06:50:47.605Z,3.00
2023-08-21T06:53:15.317Z,3.85
2023-08-21T06:55:43.006Z,3.85
2023-08-21T06:58:10.724Z,3.05
2023-08-21T07:00:38.477Z,3.47
2023-08-21T07:03:08.747Z,3.45
2023-08-21T07:05:36.972Z,4.05
2023-08-21T07:08:05.248Z,4.63
2023-08-21T07:10:38.494Z,3.58
2023-08-21T07:13:06.332Z,3.05
2023-08-21T07:15:34.021Z,3.08
2023-08-21T07:18:01.845Z,3.55
2023-08-21T07:20:30.138Z,3.50
2023-08-21T07:22:59.166Z,4.00
2023-08-21T07:25:28.616Z,3.75
2023-08-21T07:27:56.975Z,3.38
2023-08-21T07:30:24.801Z,4.55
2023-08-21T07:32:54.947Z,4.10
2023-08-21T07:35:22.680Z,3.28
2023-08-21T07:37:50.358Z,3.67
2023-08-21T07:40:18.344Z,3.83
2023-08-21T07:42:46.036Z,4.03
2023-08-21T07:45:13.827Z,4.05
2023-08-21T07:47:41.603Z,2.40
2023-08-21T07:50:10.374Z,3.30
2023-08-21T07:52:38.736Z,3.03
2023-08-21T07:55:07.531Z,3.95
2023-08-21T07:57:35.181Z,2.88
2023-08-21T08:00:03.021Z,2.75
2023-08-21T08:02:41.443Z,2.38
2023-08-21T08:05:10.227Z,2.20
2023-08-21T08:07:37.900Z,2.42
2023-08-21T08:10:06.061Z,2.40
2023-08-21T08:12:34.456Z,3.50
2023-08-21T08:15:03.101Z,2.38
2023-08-21T08:17:30.878Z,2.95
2023-08-21T08:19:58.598Z,2.28
2023-08-21T08:22:26.274Z,2.03
2023-08-21T08:24:54.077Z,2.50
2023-08-21T08:27:21.938Z,2.88
2023-08-21T08:29:50.700Z,2.72
2023-08-21T08:32:18.601Z,2.70
2023-08-21T08:34:47.827Z,2.53
2023-08-21T08:37:15.479Z,2.80
2023-08-21T08:39:43.120Z,2.10
2023-08-21T08:42:12.145Z,2.50
2023-08-21T08:44:42.154Z,2.13
2023-08-21T08:47:11.665Z,2.15
2023-08-21T08:49:39.666Z,2.15
2023-08-21T08:52:07.519Z,1.80
2023-08-21T08:54:36.737Z,1.90
2023-08-21T08:57:04.496Z,1.80
2023-08-21T08:59:32.798Z,1.80
2023-08-21T09:02:00.699Z,1.70
2023-08-21T09:04:28.480Z,1.98
2023-08-21T09:07:13.360Z,1.73
2023-08-21T09:09:42.898Z,1.73
2023-08-21T09:12:16.203Z,2.30
2023-08-21T09:14:45.546Z,2.13
2023-08-21T09:17:14.594Z,1.52
2023-08-21T09:19:42.625Z,1.98
2023-08-21T09:22:21.221Z,1.15
2023-08-21T09:25:08.129Z,1.40
2023-08-21T09:27:40.483Z,1.15
2023-08-21T09:30:15.863Z,1.33
2023-08-21T09:33:06.112Z,1.40
2023-08-21T09:35:35.039Z,1.58
2023-08-21T09:38:03.073Z,1.77
2023-08-21T09:40:30.725Z,1.25
2023-08-21T09:42:58.508Z,1.85
2023-08-21T09:45:29.496Z,1.60
2023-08-21T09:50:30.137Z,1.77
2023-08-21T09:53:00.972Z,2.42
2023-08-21T09:55:32.387Z,1.63
2023-08-21T09:58:01.176Z,1.73
2023-08-21T10:00:35.839Z,1.27
2023-08-21T10:03:07.454Z,1.05
2023-08-21T10:05:38.012Z,1.00
2023-08-21T10:08:08.176Z,1.00
2023-08-21T10:10:38.533Z,0.90
2023-08-21T10:13:09.213Z,1.20
2023-08-21T10:15:38.963Z,0.93
2023-08-21T10:18:31.002Z,0.80
2023-08-21T10:21:22.861Z,1.00
2023-08-21T10:23:52.989Z,1.83
2023-08-21T10:26:23.343Z,1.15
2023-08-21T10:29:00.453Z,1.30
2023-08-21T10:31:41.745Z,1.08
2023-08-21T10:34:13.930Z,0.80
2023-08-21T10:36:44.762Z,0.52
2023-08-21T10:39:21.401Z,0.88
2023-08-21T10:42:15.044Z,1.00
2023-08-21T10:45:00.487Z,0.68
2023-08-21T10:47:28.360Z,1.13
2023-08-21T10:49:58.834Z,0.85
2023-08-21T10:52:30.020Z,0.77
2023-08-21T10:54:59.871Z,0.63
2023-08-21T10:57:31.761Z,0.75
2023-08-21T11:00:12.318Z,1.27
2023-08-21T11:02:51.100Z,1.20
2023-08-21T11:05:19.004Z,1.23
2023-08-21T11:07:49.215Z,1.67
2023-08-21T11:10:23.576Z,0.80
2023-08-21T11:13:00.728Z,0.73
2023-08-21T11:15:30.964Z,1.13
2023-08-21T11:18:01.883Z,0.77
2023-08-21T11:20:35.134Z,2.35
2023-08-21T11:23:09.120Z,1.45
2023-08-21T11:25:41.222Z,1.48
2023-08-21T11:28:09.441Z,0.85
2023-08-21T11:30:37.956Z,0.77
2023-08-21T11:33:07.040Z,0.65
2023-08-21T11:35:34.858Z,0.98
2023-08-21T11:38:02.749Z,0.85
2023-08-21T11:40:30.565Z,0.88
2023-08-21T11:43:02.765Z,1.42
2023-08-21T11:45:31.490Z,1.00
2023-08-21T11:48:04.303Z,1.02
2023-08-21T11:50:32.133Z,0.95
2023-08-21T11:52:59.817Z,1.52
2023-08-21T11:55:27.440Z,1.10
2023-08-21T11:57:56.078Z,1.10
2023-08-21T12:00:31.492Z,0.77
2023-08-21T12:03:02.334Z,0.80
2023-08-21T12:05:30.338Z,1.15
2023-08-21T12:07:58.146Z,1.00
2023-08-21T12:10:30.228Z,1.10
2023-08-21T12:12:58.068Z,0.80
2023-08-21T12:15:25.830Z,0.70
2023-08-21T12:17:53.558Z,1.38
2023-08-21T12:20:22.106Z,0.70
2023-08-21T12:22:49.940Z,0.95
2023-08-21T12:25:17.779Z,1.10
2023-08-21T12:27:46.862Z,1.00
2023-08-21T12:30:18.037Z,0.98
2023-08-21T12:32:45.649Z,0.80
2023-08-21T12:35:13.613Z,0.90
2023-08-21T12:37:41.569Z,1.20
2023-08-21T12:40:09.916Z,0.65
2023-08-21T12:42:37.700Z,0.50
2023-08-21T12:45:06.630Z,0.60
2023-08-21T12:47:34.520Z,0.63
2023-08-21T12:50:04.541Z,0.45
2023-08-21T12:52:32.447Z,1.20
2023-08-21T12:55:02.713Z,0.75
2023-08-21T12:57:30.426Z,0.77
2023-08-21T12:59:58.196Z,0.68
2023-08-21T13:02:28.296Z,0.60
2023-08-21T13:04:56.297Z,0.70
2023-08-21T13:07:24.001Z,0.55
2023-08-21T13:09:51.652Z,0.43
2023-08-21T13:12:19.274Z,0.52
2023-08-21T13:14:49.389Z,0.50
2023-08-21T13:17:17.195Z,0.40
2023-08-21T13:19:44.822Z,0.35
2023-08-21T13:22:12.654Z,0.73
2023-08-21T13:24:40.395Z,0.90
2023-08-21T13:27:08.164Z,0.50
2023-08-21T13:29:35.893Z,0.40
2023-08-21T13:32:03.777Z,0.80
2023-08-21T13:34:31.514Z,0.30
2023-08-21T13:36:59.178Z,0.40
2023-08-21T13:39:27.733Z,0.50
2023-08-21T13:41:55.428Z,0.43
2023-08-21T13:44:23.668Z,0.40
2023-08-21T13:46:51.379Z,0.30
2023-08-21T13:49:19.087Z,0.63
2023-08-21T13:51:46.916Z,0.30
2023-08-21T13:54:14.611Z,0.60
2023-08-21T13:56:42.281Z,0.63
2023-08-21T13:59:10.121Z,0.75
2023-08-21T14:01:37.859Z,1.00
2023-08-21T14:04:05.542Z,1.10
2023-08-21T14:06:33.250Z,1.35
2023-08-21T14:09:00.943Z,1.00
2023-08-21T14:11:28.591Z,1.02
2023-08-21T14:13:56.248Z,1.40
2023-08-21T14:16:24.100Z,1.25
2023-08-21T14:18:51.773Z,1.48
2023-08-21T14:21:19.633Z,0.95
2023-08-21T14:23:47.338Z,1.10
2023-08-21T14:26:15.020Z,0.95
2023-08-21T14:28:42.850Z,1.15
2023-08-21T14:31:10.649Z,1.40
2023-08-21T14:33:38.478Z,1.10
2023-08-21T14:36:06.446Z,1.38
2023-08-21T14:38:35.809Z,1.02
2023-08-21T14:41:04.166Z,1.00
2023-08-21T14:43:33.419Z,1.30
2023-08-21T14:46:01.094Z,1.30
2023-08-21T14:48:28.779Z,1.30
2023-08-21T14:50:56.488Z,0.98
2023-08-21T14:53:26.671Z,0.90
2023-08-21T14:55:55.441Z,1.05
2023-08-21T14:58:24.553Z,0.60
2023-08-21T15:00:59.433Z,0.95
2023-08-21T15:03:27.207Z,0.80
2023-08-21T15:05:54.947Z,0.82
2023-08-21T15:08:22.578Z,1.63
2023-08-21T15:10:50.504Z,0.90
2023-08-21T15:13:18.170Z,0.95
2023-08-21T15:15:46.016Z,1.20
2023-08-21T15:18:14.167Z,1.30
2023-08-21T15:20:41.839Z,0.93
2023-08-21T15:23:09.485Z,1.50
2023-08-21T15:25:37.163Z,0.88
2023-08-21T15:28:05.189Z,1.02
2023-08-21T15:30:33.085Z,1.13
2023-08-21T15:33:00.931Z,1.17
2023-08-21T15:35:28.675Z,1.65
2023-08-21T15:37:56.365Z,1.50
2023-08-21T15:40:24.244Z,1.10
2023-08-21T15:42:52.010Z,1.30
2023-08-21T15:45:19.737Z,1.52
2023-08-21T15:47:50.133Z,1.38
2023-08-21T15:50:20.948Z,1.65
2023-08-21T15:52:49.930Z,1.52
2023-08-21T15:55:17.982Z,2.33
2023-08-21T15:57:45.711Z,2.05
2023-08-21T16:00:14.162Z,1.73
2023-08-21T16:02:42.744Z,1.55
2023-08-21T16:05:11.578Z,1.77
2023-08-21T16:07:39.324Z,2.80
2023-08-21T16:10:09.223Z,1.88
2023-08-21T16:12:37.448Z,1.88
2023-08-21T16:15:06.667Z,2.33
2023-08-21T16:17:34.605Z,1.77
2023-08-21T16:20:05.605Z,1.73
2023-08-21T16:22:34.431Z,2.05
2023-08-21T16:25:02.072Z,2.70
2023-08-21T16:27:30.133Z,2.00
2023-08-21T16:29:57.924Z,2.17
2023-08-21T16:32:25.549Z,1.83
2023-08-21T16:34:53.367Z,2.10
2023-08-21T16:37:21.413Z,2.92
2023-08-21T16:39:49.030Z,3.08
2023-08-21T16:42:16.728Z,2.17
2023-08-21T16:44:44.435Z,2.97
2023-08-21T16:47:12.188Z,2.70
2023-08-21T16:49:39.884Z,2.17
2023-08-21T16:52:07.632Z,2.45
2023-08-21T16:54:35.223Z,2.03
2023-08-21T16:57:02.981Z,2.42
2023-08-21T16:59:30.944Z,2.95
2023-08-21T17:01:58.635Z,2.50
2023-08-21T17:04:26.372Z,2.03
2023-08-21T17:06:54.083Z,2.13
2023-08-21T17:09:21.807Z,1.88
2023-08-21T17:11:49.526Z,1.45
2023-08-21T17:14:17.180Z,1.40
2023-08-21T17:16:45.000Z,1.70
2023-08-21T17:19:12.631Z,1.98
2023-08-21T17:21:40.446Z,2.08
2023-08-21T17:24:08.255Z,2.30
2023-08-21T17:26:36.018Z,2.08
2023-08-21T17:29:04.900Z,1.92
2023-08-21T17:31:32.664Z,2.25
2023-08-21T17:34:00.982Z,2.03
2023-08-21T17:36:28.695Z,1.98
2023-08-21T17:38:56.309Z,1.75
2023-08-21T17:41:24.079Z,1.92
2023-08-21T17:43:51.723Z,2.13
2023-08-21T17:46:19.484Z,1.38
2023-08-21T17:48:47.103Z,1.98
2023-08-21T17:51:16.296Z,2.35
2023-08-21T17:53:43.890Z,2.28
2023-08-21T17:56:12.711Z,2.83
2023-08-21T17:58:40.765Z,2.30
2023-08-21T18:01:08.633Z,2.85
2023-08-21T18:03:36.401Z,2.13
2023-08-21T18:06:06.440Z,2.85
2023-08-21T18:08:34.150Z,2.60
2023-08-21T18:11:04.176Z,2.60
2023-08-21T18:13:31.905Z,2.50
2023-08-21T18:15:59.540Z,2.22
2023-08-21T18:18:27.865Z,2.00
2023-08-21T18:20:56.539Z,2.13
2023-08-21T18:23:31.047Z,2.47
2023-08-21T18:25:59.628Z,2.30
2023-08-21T18:28:27.518Z,2.25
2023-08-21T18:30:58.872Z,2.13
2023-08-21T18:33:27.670Z,2.22
2023-08-21T18:35:56.100Z,1.85
2023-08-21T18:38:23.828Z,1.35
2023-08-21T18:40:51.688Z,2.08
2023-08-21T18:43:20.824Z,1.42
2023-08-21T18:45:49.990Z,1.85
2023-08-21T18:48:18.525Z,2.28
2023-08-21T18:50:46.680Z,1.67
2023-08-21T18:53:16.240Z,1.85
2023-08-21T18:55:47.385Z,1.50
2023-08-21T18:58:16.036Z,2.25
2023-08-21T19:00:43.805Z,1.70
2023-08-21T19:03:11.688Z,1.58
2023-08-21T19:05:39.471Z,1.95
2023-08-21T19:08:07.169Z,1.88
2023-08-21T19:10:35.068Z,1.60
2023-08-21T19:13:03.516Z,1.48
2023-08-21T19:15:31.307Z,2.10
2023-08-21T19:17:59.040Z,1.83
2023-08-21T19:20:27.051Z,1.85
2023-08-21T19:22:55.348Z,2.10
2023-08-21T19:25:23.249Z,2.00
2023-08-21T19:27:50.954Z,1.40
2023-08-21T19:30:19.005Z,1.35
2023-08-21T19:32:46.832Z,2.35
2023-08-21T19:35:14.630Z,1.90
2023-08-21T19:37:42.651Z,1.73
2023-08-21T19:40:11.307Z,1.88
2023-08-21T19:42:39.128Z,1.38
2023-08-21T19:45:07.681Z,2.63
2023-08-21T19:47:35.546Z,1.70
2023-08-21T19:50:04.374Z,1.77
2023-08-21T19:52:32.050Z,2.63
2023-08-21T19:54:59.730Z,2.45
2023-08-21T19:57:27.505Z,1.95
2023-08-21T19:59:55.590Z,1.90
2023-08-21T20:02:23.397Z,2.00
2023-08-21T20:04:52.708Z,1.85
2023-08-21T20:07:21.488Z,1.85
2023-08-21T20:09:49.099Z,2.70
2023-08-21T20:12:16.769Z,2.65
2023-08-21T20:14:45.729Z,1.85
2023-08-21T20:17:14.838Z,1.98
2023-08-21T20:19:42.760Z,2.33
2023-08-21T20:22:10.680Z,2.25
2023-08-21T20:24:38.713Z,1.67
2023-08-21T20:27:06.620Z,2.00
2023-08-21T20:29:34.555Z,1.92
2023-08-21T20:32:02.665Z,2.00
2023-08-21T20:34:30.612Z,2.03
2023-08-21T20:36:58.561Z,1.95
2023-08-21T20:39:26.773Z,2.47
2023-08-21T20:41:54.719Z,2.03
2023-08-21T20:44:22.712Z,2.00
2023-08-21T20:46:50.740Z,1.80
2023-08-21T20:49:18.721Z,2.00
2023-08-21T20:51:46.702Z,1.88
2023-08-21T20:54:14.684Z,1.65
2023-08-21T20:56:42.803Z,1.77
2023-08-21T20:59:10.882Z,1.65
2023-08-21T21:01:38.859Z,1.90
2023-08-21T21:04:07.155Z,2.25
2023-08-21T21:06:35.238Z,2.47
2023-08-21T21:09:05.421Z,2.33
2023-08-21T21:11:33.519Z,1.77
2023-08-21T21:14:03.367Z,2.22
2023-08-21T21:16:32.240Z,2.00
2023-08-21T21:19:00.352Z,2.20
2023-08-21T21:21:28.372Z,2.53
2023-08-21T21:23:56.353Z,1.77
2023-08-21T21:26:24.298Z,1.88
2023-08-21T21:28:52.388Z,2.08
2023-08-21T21:31:20.532Z,2.67
2023-08-21T21:33:53.492Z,2.33
2023-08-21T21:36:21.602Z,1.90
2023-08-21T21:38:49.542Z,1.50
2023-08-21T21:41:17.963Z,2.15
2023-08-21T21:43:46.588Z,1.73
2023-08-21T21:46:24.779Z,2.10
2023-08-21T21:48:53.579Z,3.28
2023-08-21T21:51:21.522Z,2.00
2023-08-21T21:53:49.560Z,2.20
2023-08-21T21:56:17.609Z,2.65
2023-08-21T21:58:45.926Z,2.08
2023-08-21T22:01:14.070Z,2.10
2023-08-21T22:03:42.208Z,2.15
2023-08-21T22:06:10.236Z,2.35
2023-08-21T22:08:38.218Z,2.38
2023-08-21T22:11:06.448Z,2.35
2023-08-21T22:13:34.748Z,2.45
2023-08-21T22:16:03.519Z,1.75
2023-08-21T22:18:31.646Z,2.05
2023-08-21T22:20:59.742Z,2.28
2023-08-21T22:23:27.751Z,2.10
2023-08-21T22:25:55.789Z,2.55
2023-08-21T22:28:23.724Z,2.33
2023-08-21T22:30:51.670Z,2.83
2023-08-21T22:33:19.842Z,2.75
2023-08-21T22:35:48.747Z,2.20
2023-08-21T22:38:16.659Z,2.38
2023-08-21T22:40:44.613Z,2.20
2023-08-21T22:43:12.583Z,2.40
2023-08-21T22:45:41.390Z,2.55
2023-08-21T22:48:09.532Z,2.22
2023-08-21T22:50:39.753Z,1.90
2023-08-21T22:53:08.328Z,2.45
2023-08-21T22:55:37.444Z,2.10
2023-08-21T22:58:06.066Z,2.15
2023-08-21T23:00:34.616Z,2.20
2023-08-21T23:03:02.797Z,2.53
2023-08-21T23:05:30.802Z,2.50
2023-08-21T23:07:58.844Z,3.20
2023-08-21T23:10:26.826Z,3.08
2023-08-21T23:12:54.842Z,3.10
2023-08-21T23:15:22.886Z,2.83
2023-08-21T23:17:50.973Z,2.80
2023-08-21T23:20:19.071Z,2.75
2023-08-21T23:22:46.979Z,3.17
2023-08-21T23:25:15.954Z,2.92
2023-08-21T23:27:43.866Z,2.72
2023-08-21T23:30:12.456Z,3.58
2023-08-21T23:32:40.414Z,2.58
2023-08-21T23:35:08.995Z,2.75
2023-08-21T23:37:37.131Z,2.95
2023-08-21T23:40:10.459Z,3.20
2023-08-21T23:42:38.435Z,3.33
2023-08-21T23:45:06.944Z,2.85
2023-08-21T23:47:34.927Z,2.75
2023-08-21T23:50:06.088Z,3.13
2023-08-21T23:52:34.139Z,3.20
2023-08-21T23:55:03.306Z,3.30
2023-08-21T23:57:31.870Z,3.10
